sensor_id;sensor_type;location;lat;lon;timestamp;temperature;humidity
68701;DHT22;55682;51.114;5.882;2023-09-18T00:02:07;22.37;78.30
68701;DHT22;55682;51.114;5.882;2023-09-18T00:04:33;22.40;78.12
68701;DHT22;55682;51.114;5.882;2023-09-18T00:06:59;22.38;78.15
68701;DHT22;55682;51.114;5.882;2023-09-18T00:09:24;22.40;78.13
68701;DHT22;55682;51.114;5.882;2023-09-18T00:11:50;22.42;77.87
68701;DHT22;55682;51.114;5.882;2023-09-18T00:14:16;22.44;77.82
68701;DHT22;55682;51.114;5.882;2023-09-18T00:16:41;22.50;77.65
68701;DHT22;55682;51.114;5.882;2023-09-18T00:19:07;22.52;77.55
68701;DHT22;55682;51.114;5.882;2023-09-18T00:21:34;22.50;77.47
68701;DHT22;55682;51.114;5.882;2023-09-18T00:24:00;22.43;77.44
68701;DHT22;55682;51.114;5.882;2023-09-18T00:26:25;22.37;77.66
68701;DHT22;55682;51.114;5.882;2023-09-18T00:28:52;22.31;77.88
68701;DHT22;55682;51.114;5.882;2023-09-18T00:31:19;22.28;77.96
68701;DHT22;55682;51.114;5.882;2023-09-18T00:33:45;22.29;77.96
68701;DHT22;55682;51.114;5.882;2023-09-18T00:36:10;22.37;77.75
68701;DHT22;55682;51.114;5.882;2023-09-18T00:38:36;22.41;77.47
68701;DHT22;55682;51.114;5.882;2023-09-18T00:41:01;22.43;77.34
68701;DHT22;55682;51.114;5.882;2023-09-18T00:43:27;22.46;77.18
68701;DHT22;55682;51.114;5.882;2023-09-18T00:45:53;22.46;77.21
68701;DHT22;55682;51.114;5.882;2023-09-18T00:48:19;22.39;77.33
68701;DHT22;55682;51.114;5.882;2023-09-18T00:50:46;22.37;77.47
68701;DHT22;55682;51.114;5.882;2023-09-18T00:53:17;22.37;77.39
68701;DHT22;55682;51.114;5.882;2023-09-18T00:55:45;22.38;77.37
68701;DHT22;55682;51.114;5.882;2023-09-18T00:58:11;22.36;77.44
68701;DHT22;55682;51.114;5.882;2023-09-18T01:00:37;22.37;77.43
68701;DHT22;55682;51.114;5.882;2023-09-18T01:03:04;22.41;77.21
68701;DHT22;55682;51.114;5.882;2023-09-18T01:05:33;22.36;77.29
68701;DHT22;55682;51.114;5.882;2023-09-18T01:07:59;22.36;77.28
68701;DHT22;55682;51.114;5.882;2023-09-18T01:10:33;22.38;77.09
68701;DHT22;55682;51.114;5.882;2023-09-18T01:13:11;22.40;77.03
68701;DHT22;55682;51.114;5.882;2023-09-18T01:15:51;22.38;77.10
68701;DHT22;55682;51.114;5.882;2023-09-18T01:18:17;22.34;77.08
68701;DHT22;55682;51.114;5.882;2023-09-18T01:20:44;22.31;77.34
68701;DHT22;55682;51.114;5.882;2023-09-18T01:23:10;22.29;77.34
68701;DHT22;55682;51.114;5.882;2023-09-18T01:25:37;22.23;77.60
68701;DHT22;55682;51.114;5.882;2023-09-18T01:28:03;22.22;77.69
68701;DHT22;55682;51.114;5.882;2023-09-18T01:30:29;22.23;77.64
68701;DHT22;55682;51.114;5.882;2023-09-18T01:32:58;22.22;77.59
68701;DHT22;55682;51.114;5.882;2023-09-18T01:35:26;22.20;77.59
68701;DHT22;55682;51.114;5.882;2023-09-18T01:37:59;22.20;77.66
68701;DHT22;55682;51.114;5.882;2023-09-18T01:40:26;22.21;77.66
68701;DHT22;55682;51.114;5.882;2023-09-18T01:42:53;22.25;77.40
68701;DHT22;55682;51.114;5.882;2023-09-18T01:45:19;22.28;77.14
68701;DHT22;55682;51.114;5.882;2023-09-18T01:47:46;22.35;76.79
68701;DHT22;55682;51.114;5.882;2023-09-18T01:50:11;22.33;76.71
68701;DHT22;55682;51.114;5.882;2023-09-18T01:52:37;22.29;76.70
68701;DHT22;55682;51.114;5.882;2023-09-18T01:55:03;22.29;76.67
68701;DHT22;55682;51.114;5.882;2023-09-18T01:57:33;22.32;76.57
68701;DHT22;55682;51.114;5.882;2023-09-18T01:59:58;22.36;76.31
68701;DHT22;55682;51.114;5.882;2023-09-18T02:02:24;22.41;76.05
68701;DHT22;55682;51.114;5.882;2023-09-18T02:04:50;22.42;75.89
68701;DHT22;55682;51.114;5.882;2023-09-18T02:07:15;22.42;75.80
68701;DHT22;55682;51.114;5.882;2023-09-18T02:09:41;22.44;75.85
68701;DHT22;55682;51.114;5.882;2023-09-18T02:12:07;22.49;75.69
68701;DHT22;55682;51.114;5.882;2023-09-18T02:14:32;22.51;75.53
68701;DHT22;55682;51.114;5.882;2023-09-18T02:16:59;22.55;75.22
68701;DHT22;55682;51.114;5.882;2023-09-18T02:19:25;22.53;75.41
68701;DHT22;55682;51.114;5.882;2023-09-18T02:21:52;22.54;75.33
68701;DHT22;55682;51.114;5.882;2023-09-18T02:24:17;22.55;75.48
68701;DHT22;55682;51.114;5.882;2023-09-18T02:26:43;22.52;75.41
68701;DHT22;55682;51.114;5.882;2023-09-18T02:29:10;22.50;75.63
68701;DHT22;55682;51.114;5.882;2023-09-18T02:31:38;22.50;75.47
68701;DHT22;55682;51.114;5.882;2023-09-18T02:34:04;22.42;75.38
68701;DHT22;55682;51.114;5.882;2023-09-18T02:36:30;22.42;75.38
68701;DHT22;55682;51.114;5.882;2023-09-18T02:38:56;22.44;75.31
68701;DHT22;55682;51.114;5.882;2023-09-18T02:41:22;22.44;75.33
68701;DHT22;55682;51.114;5.882;2023-09-18T02:43:47;22.49;75.31
68701;DHT22;55682;51.114;5.882;2023-09-18T02:46:13;22.48;75.41
68701;DHT22;55682;51.114;5.882;2023-09-18T02:48:38;22.51;75.38
68701;DHT22;55682;51.114;5.882;2023-09-18T02:51:05;22.47;75.31
68701;DHT22;55682;51.114;5.882;2023-09-18T02:53:30;22.49;75.17
68701;DHT22;55682;51.114;5.882;2023-09-18T02:55:58;22.52;75.06
68701;DHT22;55682;51.114;5.882;2023-09-18T02:58:25;22.52;75.05
68701;DHT22;55682;51.114;5.882;2023-09-18T03:00:53;22.50;75.17
68701;DHT22;55682;51.114;5.882;2023-09-18T03:03:22;22.49;75.17
68701;DHT22;55682;51.114;5.882;2023-09-18T03:05:48;22.44;75.33
68701;DHT22;55682;51.114;5.882;2023-09-18T03:08:14;22.41;75.40
68701;DHT22;55682;51.114;5.882;2023-09-18T03:10:42;22.36;75.48
68701;DHT22;55682;51.114;5.882;2023-09-18T03:13:13;22.36;75.36
68701;DHT22;55682;51.114;5.882;2023-09-18T03:15:39;22.26;75.48
68701;DHT22;55682;51.114;5.882;2023-09-18T03:18:06;22.21;75.71
68701;DHT22;55682;51.114;5.882;2023-09-18T03:20:33;22.21;75.99
68701;DHT22;55682;51.114;5.882;2023-09-18T03:23:00;22.16;76.35
68701;DHT22;55682;51.114;5.882;2023-09-18T03:25:27;22.22;76.20
68701;DHT22;55682;51.114;5.882;2023-09-18T03:27:54;22.27;76.02
68701;DHT22;55682;51.114;5.882;2023-09-18T03:30:23;22.37;75.67
68701;DHT22;55682;51.114;5.882;2023-09-18T03:32:50;22.44;75.60
68701;DHT22;55682;51.114;5.882;2023-09-18T03:35:17;22.47;75.50
68701;DHT22;55682;51.114;5.882;2023-09-18T03:37:49;22.51;75.57
68701;DHT22;55682;51.114;5.882;2023-09-18T03:40:17;22.55;75.51
68701;DHT22;55682;51.114;5.882;2023-09-18T03:42:43;22.51;75.79
68701;DHT22;55682;51.114;5.882;2023-09-18T03:45:09;22.49;76.02
68701;DHT22;55682;51.114;5.882;2023-09-18T03:47:39;22.46;76.28
68701;DHT22;55682;51.114;5.882;2023-09-18T03:50:07;22.46;76.40
68701;DHT22;55682;51.114;5.882;2023-09-18T03:52:33;22.42;76.50
68701;DHT22;55682;51.114;5.882;2023-09-18T03:54:58;22.40;76.70
68701;DHT22;55682;51.114;5.882;2023-09-18T03:57:24;22.35;76.91
68701;DHT22;55682;51.114;5.882;2023-09-18T03:59:50;22.38;76.37
68701;DHT22;55682;51.114;5.882;2023-09-18T04:02:16;22.29;76.37
68701;DHT22;55682;51.114;5.882;2023-09-18T04:04:41;22.35;75.98
68701;DHT22;55682;51.114;5.882;2023-09-18T04:07:08;22.28;75.89
68701;DHT22;55682;51.114;5.882;2023-09-18T04:09:34;22.25;75.92
68701;DHT22;55682;51.114;5.882;2023-09-18T04:12:01;22.25;75.88
68701;DHT22;55682;51.114;5.882;2023-09-18T04:14:27;22.23;76.07
68701;DHT22;55682;51.114;5.882;2023-09-18T04:16:52;22.21;76.22
68701;DHT22;55682;51.114;5.882;2023-09-18T04:19:18;22.21;76.34
68701;DHT22;55682;51.114;5.882;2023-09-18T04:21:44;22.18;76.52
68701;DHT22;55682;51.114;5.882;2023-09-18T04:24:09;22.10;76.76
68701;DHT22;55682;51.114;5.882;2023-09-18T04:26:35;22.10;76.87
68701;DHT22;55682;51.114;5.882;2023-09-18T04:29:03;22.06;77.05
68701;DHT22;55682;51.114;5.882;2023-09-18T04:31:30;22.05;77.21
68701;DHT22;55682;51.114;5.882;2023-09-18T04:33:56;22.08;77.17
68701;DHT22;55682;51.114;5.882;2023-09-18T04:36:23;21.97;77.56
68701;DHT22;55682;51.114;5.882;2023-09-18T04:38:49;22.05;77.25
68701;DHT22;55682;51.114;5.882;2023-09-18T04:41:16;21.96;77.63
68701;DHT22;55682;51.114;5.882;2023-09-18T04:43:41;21.92;77.99
68701;DHT22;55682;51.114;5.882;2023-09-18T04:46:10;21.96;77.56
68701;DHT22;55682;51.114;5.882;2023-09-18T04:48:36;22.01;77.27
68701;DHT22;55682;51.114;5.882;2023-09-18T04:51:03;21.97;77.41
68701;DHT22;55682;51.114;5.882;2023-09-18T04:53:31;21.89;77.60
68701;DHT22;55682;51.114;5.882;2023-09-18T04:55:58;21.92;77.46
68701;DHT22;55682;51.114;5.882;2023-09-18T04:58:23;21.95;77.24
68701;DHT22;55682;51.114;5.882;2023-09-18T05:00:59;21.88;77.50
68701;DHT22;55682;51.114;5.882;2023-09-18T05:03:28;21.99;76.79
68701;DHT22;55682;51.114;5.882;2023-09-18T05:05:54;21.95;76.82
68701;DHT22;55682;51.114;5.882;2023-09-18T05:08:20;21.93;77.14
68701;DHT22;55682;51.114;5.882;2023-09-18T05:10:46;22.02;76.79
68701;DHT22;55682;51.114;5.882;2023-09-18T05:13:13;21.89;77.00
68701;DHT22;55682;51.114;5.882;2023-09-18T05:15:38;21.90;77.19
68701;DHT22;55682;51.114;5.882;2023-09-18T05:18:05;21.92;77.23
68701;DHT22;55682;51.114;5.882;2023-09-18T05:20:31;21.91;77.00
68701;DHT22;55682;51.114;5.882;2023-09-18T05:22:58;21.91;76.89
68701;DHT22;55682;51.114;5.882;2023-09-18T05:25:26;21.85;76.99
68701;DHT22;55682;51.114;5.882;2023-09-18T05:28:00;21.95;76.35
68701;DHT22;55682;51.114;5.882;2023-09-18T05:30:34;21.96;76.25
68701;DHT22;55682;51.114;5.882;2023-09-18T05:33:02;22.04;75.82
68701;DHT22;55682;51.114;5.882;2023-09-18T05:35:35;21.82;76.45
68701;DHT22;55682;51.114;5.882;2023-09-18T05:38:04;21.74;76.91
68701;DHT22;55682;51.114;5.882;2023-09-18T05:40:30;21.82;76.70
68701;DHT22;55682;51.114;5.882;2023-09-18T05:42:57;21.82;76.66
68701;DHT22;55682;51.114;5.882;2023-09-18T05:45:23;21.82;76.41
68701;DHT22;55682;51.114;5.882;2023-09-18T05:47:49;21.76;76.64
68701;DHT22;55682;51.114;5.882;2023-09-18T05:50:16;21.84;76.14
68701;DHT22;55682;51.114;5.882;2023-09-18T05:52:43;21.81;75.95
68701;DHT22;55682;51.114;5.882;2023-09-18T05:55:09;21.84;75.58
68701;DHT22;55682;51.114;5.882;2023-09-18T05:57:35;21.87;75.18
68701;DHT22;55682;51.114;5.882;2023-09-18T06:00:01;21.84;75.30
68701;DHT22;55682;51.114;5.882;2023-09-18T06:02:37;21.84;75.13
68701;DHT22;55682;51.114;5.882;2023-09-18T06:05:03;21.85;74.80
68701;DHT22;55682;51.114;5.882;2023-09-18T06:07:29;21.67;75.71
68701;DHT22;55682;51.114;5.882;2023-09-18T06:09:59;21.74;75.17
68701;DHT22;55682;51.114;5.882;2023-09-18T06:12:25;21.79;75.26
68701;DHT22;55682;51.114;5.882;2023-09-18T06:14:51;21.75;75.17
68701;DHT22;55682;51.114;5.882;2023-09-18T06:17:17;21.74;75.09
68701;DHT22;55682;51.114;5.882;2023-09-18T06:19:44;21.75;74.99
68701;DHT22;55682;51.114;5.882;2023-09-18T06:22:11;21.62;75.75
68701;DHT22;55682;51.114;5.882;2023-09-18T06:24:37;21.67;75.58
68701;DHT22;55682;51.114;5.882;2023-09-18T06:27:03;21.74;75.12
68701;DHT22;55682;51.114;5.882;2023-09-18T06:29:35;21.75;75.02
68701;DHT22;55682;51.114;5.882;2023-09-18T06:32:03;21.93;74.42
68701;DHT22;55682;51.114;5.882;2023-09-18T06:34:29;21.87;74.76
68701;DHT22;55682;51.114;5.882;2023-09-18T06:36:54;21.87;74.84
68701;DHT22;55682;51.114;5.882;2023-09-18T06:39:20;21.91;74.73
68701;DHT22;55682;51.114;5.882;2023-09-18T06:41:47;21.97;74.28
68701;DHT22;55682;51.114;5.882;2023-09-18T06:44:13;22.03;73.58
68701;DHT22;55682;51.114;5.882;2023-09-18T06:46:39;21.90;74.42
68701;DHT22;55682;51.114;5.882;2023-09-18T06:49:05;21.93;74.57
68701;DHT22;55682;51.114;5.882;2023-09-18T06:51:30;21.90;74.73
68701;DHT22;55682;51.114;5.882;2023-09-18T06:53:56;21.98;74.05
68701;DHT22;55682;51.114;5.882;2023-09-18T06:56:24;21.94;74.49
68701;DHT22;55682;51.114;5.882;2023-09-18T06:58:50;22.02;74.18
68701;DHT22;55682;51.114;5.882;2023-09-18T07:01:18;21.94;74.76
68701;DHT22;55682;51.114;5.882;2023-09-18T07:03:45;22.07;73.83
68701;DHT22;55682;51.114;5.882;2023-09-18T07:06:13;21.97;73.96
68701;DHT22;55682;51.114;5.882;2023-09-18T07:08:40;22.09;73.73
68701;DHT22;55682;51.114;5.882;2023-09-18T07:11:06;21.96;74.13
68701;DHT22;55682;51.114;5.882;2023-09-18T07:13:32;22.02;73.86
68701;DHT22;55682;51.114;5.882;2023-09-18T07:15:57;21.97;73.83
68701;DHT22;55682;51.114;5.882;2023-09-18T07:18:23;21.95;73.98
68701;DHT22;55682;51.114;5.882;2023-09-18T07:20:48;22.01;73.77
68701;DHT22;55682;51.114;5.882;2023-09-18T07:23:14;21.88;73.79
68701;DHT22;55682;51.114;5.882;2023-09-18T07:25:40;21.96;73.25
68701;DHT22;55682;51.114;5.882;2023-09-18T07:28:09;21.98;73.48
68701;DHT22;55682;51.114;5.882;2023-09-18T07:30:38;21.88;73.55
68701;DHT22;55682;51.114;5.882;2023-09-18T07:33:04;21.80;74.15
68701;DHT22;55682;51.114;5.882;2023-09-18T07:35:30;21.92;73.80
68701;DHT22;55682;51.114;5.882;2023-09-18T07:37:56;22.04;73.35
68701;DHT22;55682;51.114;5.882;2023-09-18T07:40:22;22.16;72.63
68701;DHT22;55682;51.114;5.882;2023-09-18T07:42:48;22.12;72.47
68701;DHT22;55682;51.114;5.882;2023-09-18T07:45:14;22.22;72.38
68701;DHT22;55682;51.114;5.882;2023-09-18T07:47:39;22.36;71.92
68701;DHT22;55682;51.114;5.882;2023-09-18T07:50:05;22.37;71.58
68701;DHT22;55682;51.114;5.882;2023-09-18T07:52:31;22.32;71.48
68701;DHT22;55682;51.114;5.882;2023-09-18T07:54:58;22.33;71.71
68701;DHT22;55682;51.114;5.882;2023-09-18T07:57:23;22.36;71.52
68701;DHT22;55682;51.114;5.882;2023-09-18T07:59:50;22.29;71.74
68701;DHT22;55682;51.114;5.882;2023-09-18T08:02:16;22.37;71.26
68701;DHT22;55682;51.114;5.882;2023-09-18T08:04:42;22.36;71.35
68701;DHT22;55682;51.114;5.882;2023-09-18T08:07:08;22.41;71.36
68701;DHT22;55682;51.114;5.882;2023-09-18T08:09:34;22.55;70.72
68701;DHT22;55682;51.114;5.882;2023-09-18T08:12:03;22.52;70.74
68701;DHT22;55682;51.114;5.882;2023-09-18T08:14:29;22.66;69.99
68701;DHT22;55682;51.114;5.882;2023-09-18T08:16:59;22.75;69.48
68701;DHT22;55682;51.114;5.882;2023-09-18T08:19:26;22.64;69.91
68701;DHT22;55682;51.114;5.882;2023-09-18T08:21:55;22.67;69.79
68701;DHT22;55682;51.114;5.882;2023-09-18T08:24:25;22.72;69.63
68701;DHT22;55682;51.114;5.882;2023-09-18T08:26:51;22.87;68.64
68701;DHT22;55682;51.114;5.882;2023-09-18T08:29:17;22.80;69.29
68701;DHT22;55682;51.114;5.882;2023-09-18T08:31:43;22.92;68.62
68701;DHT22;55682;51.114;5.882;2023-09-18T08:34:09;23.09;68.13
68701;DHT22;55682;51.114;5.882;2023-09-18T08:36:34;23.15;67.47
68701;DHT22;55682;51.114;5.882;2023-09-18T08:39:00;23.30;67.30
68701;DHT22;55682;51.114;5.882;2023-09-18T08:41:28;23.34;67.18
68701;DHT22;55682;51.114;5.882;2023-09-18T08:44:00;23.38;66.72
68701;DHT22;55682;51.114;5.882;2023-09-18T08:46:26;23.45;67.01
68701;DHT22;55682;51.114;5.882;2023-09-18T08:48:54;23.59;66.34
68701;DHT22;55682;51.114;5.882;2023-09-18T08:51:21;23.87;65.76
68701;DHT22;55682;51.114;5.882;2023-09-18T08:53:48;23.89;65.11
68701;DHT22;55682;51.114;5.882;2023-09-18T08:56:15;23.91;64.80
68701;DHT22;55682;51.114;5.882;2023-09-18T08:58:43;23.92;65.68
68701;DHT22;55682;51.114;5.882;2023-09-18T09:01:10;24.45;63.11
68701;DHT22;55682;51.114;5.882;2023-09-18T09:03:41;24.15;63.53
68701;DHT22;55682;51.114;5.882;2023-09-18T09:06:13;25.06;63.25
68701;DHT22;55682;51.114;5.882;2023-09-18T09:08:39;25.68;59.44
68701;DHT22;55682;51.114;5.882;2023-09-18T09:11:05;26.46;58.16
68701;DHT22;55682;51.114;5.882;2023-09-18T09:13:31;27.36;53.59
68701;DHT22;55682;51.114;5.882;2023-09-18T09:15:58;27.02;54.47
68701;DHT22;55682;51.114;5.882;2023-09-18T09:18:26;27.35;54.90
68701;DHT22;55682;51.114;5.882;2023-09-18T09:23:25;28.97;48.86
68701;DHT22;55682;51.114;5.882;2023-09-18T09:25:51;29.41;48.29
68701;DHT22;55682;51.114;5.882;2023-09-18T09:28:29;29.95;47.96
68701;DHT22;55682;51.114;5.882;2023-09-18T09:31:02;30.66;45.28
68701;DHT22;55682;51.114;5.882;2023-09-18T09:33:28;31.09;44.17
68701;DHT22;55682;51.114;5.882;2023-09-18T09:35:56;31.02;43.71
68701;DHT22;55682;51.114;5.882;2023-09-18T09:38:31;31.18;42.46
68701;DHT22;55682;51.114;5.882;2023-09-18T09:40:58;30.90;43.51
68701;DHT22;55682;51.114;5.882;2023-09-18T09:43:29;30.54;43.88
68701;DHT22;55682;51.114;5.882;2023-09-18T09:45:58;30.41;44.93
68701;DHT22;55682;51.114;5.882;2023-09-18T09:48:24;30.76;43.58
68701;DHT22;55682;51.114;5.882;2023-09-18T09:50:51;30.51;43.74
68701;DHT22;55682;51.114;5.882;2023-09-18T09:53:18;30.90;43.63
68701;DHT22;55682;51.114;5.882;2023-09-18T09:55:52;31.27;42.21
68701;DHT22;55682;51.114;5.882;2023-09-18T09:58:26;31.06;42.65
68701;DHT22;55682;51.114;5.882;2023-09-18T10:01:04;30.70;43.34
68701;DHT22;55682;51.114;5.882;2023-09-18T10:03:35;30.28;45.16
68701;DHT22;55682;51.114;5.882;2023-09-18T10:06:04;30.38;44.74
68701;DHT22;55682;51.114;5.882;2023-09-18T10:08:32;30.87;43.38
68701;DHT22;55682;51.114;5.882;2023-09-18T10:11:06;31.46;42.67
68701;DHT22;55682;51.114;5.882;2023-09-18T10:13:46;31.69;40.64
68701;DHT22;55682;51.114;5.882;2023-09-18T10:16:14;31.44;41.39
68701;DHT22;55682;51.114;5.882;2023-09-18T10:19:05;31.14;41.65
68701;DHT22;55682;51.114;5.882;2023-09-18T10:21:49;31.01;42.74
68701;DHT22;55682;51.114;5.882;2023-09-18T10:27:00;31.46;41.76
68701;DHT22;55682;51.114;5.882;2023-09-18T10:29:28;31.63;41.11
68701;DHT22;55682;51.114;5.882;2023-09-18T10:31:55;31.74;40.84
68701;DHT22;55682;51.114;5.882;2023-09-18T10:34:22;31.40;42.03
68701;DHT22;55682;51.114;5.882;2023-09-18T10:36:54;31.02;42.37
68701;DHT22;55682;51.114;5.882;2023-09-18T10:39:20;30.44;43.83
68701;DHT22;55682;51.114;5.882;2023-09-18T10:41:52;30.04;45.08
68701;DHT22;55682;51.114;5.882;2023-09-18T10:44:19;30.11;45.25
68701;DHT22;55682;51.114;5.882;2023-09-18T10:46:49;30.05;44.06
68701;DHT22;55682;51.114;5.882;2023-09-18T10:49:18;29.49;45.51
68701;DHT22;55682;51.114;5.882;2023-09-18T10:51:46;29.67;45.78
68701;DHT22;55682;51.114;5.882;2023-09-18T10:54:17;30.33;42.74
68701;DHT22;55682;51.114;5.882;2023-09-18T10:56:45;30.59;42.71
68701;DHT22;55682;51.114;5.882;2023-09-18T10:59:11;31.04;42.48
68701;DHT22;55682;51.114;5.882;2023-09-18T11:01:39;31.74;40.89
68701;DHT22;55682;51.114;5.882;2023-09-18T11:04:07;31.84;39.36
68701;DHT22;55682;51.114;5.882;2023-09-18T11:09:27;31.96;39.32
68701;DHT22;55682;51.114;5.882;2023-09-18T11:14:44;31.67;39.43
68701;DHT22;55682;51.114;5.882;2023-09-18T11:20:16;31.66;39.87
68701;DHT22;55682;51.114;5.882;2023-09-18T11:23:23;31.04;40.99
68701;DHT22;55682;51.114;5.882;2023-09-18T11:25:54;30.71;41.94
68701;DHT22;55682;51.114;5.882;2023-09-18T11:28:25;30.39;41.03
68701;DHT22;55682;51.114;5.882;2023-09-18T11:30:53;29.66;42.56
68701;DHT22;55682;51.114;5.882;2023-09-18T11:33:40;29.04;44.51
68701;DHT22;55682;51.114;5.882;2023-09-18T11:36:13;28.45;46.06
68701;DHT22;55682;51.114;5.882;2023-09-18T11:38:57;28.18;46.83
68701;DHT22;55682;51.114;5.882;2023-09-18T11:41:25;28.00;47.86
68701;DHT22;55682;51.114;5.882;2023-09-18T11:43:52;28.65;46.46
68701;DHT22;55682;51.114;5.882;2023-09-18T11:46:19;29.74;43.52
68701;DHT22;55682;51.114;5.882;2023-09-18T11:48:49;30.16;42.94
68701;DHT22;55682;51.114;5.882;2023-09-18T11:51:22;30.07;41.88
68701;DHT22;55682;51.114;5.882;2023-09-18T11:53:53;30.02;42.20
68701;DHT22;55682;51.114;5.882;2023-09-18T11:56:20;30.26;42.03
68701;DHT22;55682;51.114;5.882;2023-09-18T11:58:50;29.88;42.27
68701;DHT22;55682;51.114;5.882;2023-09-18T12:01:20;29.51;43.06
68701;DHT22;55682;51.114;5.882;2023-09-18T12:03:55;29.14;43.44
68701;DHT22;55682;51.114;5.882;2023-09-18T12:06:21;28.55;44.52
68701;DHT22;55682;51.114;5.882;2023-09-18T12:08:48;28.12;45.79
68701;DHT22;55682;51.114;5.882;2023-09-18T12:11:14;27.71;46.59
68701;DHT22;55682;51.114;5.882;2023-09-18T12:13:43;27.63;47.18
68701;DHT22;55682;51.114;5.882;2023-09-18T12:16:08;27.88;46.87
68701;DHT22;55682;51.114;5.882;2023-09-18T12:18:35;28.09;45.82
68701;DHT22;55682;51.114;5.882;2023-09-18T12:21:06;27.90;46.39
68701;DHT22;55682;51.114;5.882;2023-09-18T12:23:40;27.86;47.33
68701;DHT22;55682;51.114;5.882;2023-09-18T12:26:06;28.09;47.04
68701;DHT22;55682;51.114;5.882;2023-09-18T12:28:36;28.04;47.03
68701;DHT22;55682;51.114;5.882;2023-09-18T12:31:02;27.86;47.84
68701;DHT22;55682;51.114;5.882;2023-09-18T12:33:36;27.86;48.20
68701;DHT22;55682;51.114;5.882;2023-09-18T12:36:03;28.02;48.05
68701;DHT22;55682;51.114;5.882;2023-09-18T12:38:30;28.18;47.67
68701;DHT22;55682;51.114;5.882;2023-09-18T12:40:58;28.18;47.27
68701;DHT22;55682;51.114;5.882;2023-09-18T12:43:39;28.27;47.07
68701;DHT22;55682;51.114;5.882;2023-09-18T12:46:07;28.15;47.22
68701;DHT22;55682;51.114;5.882;2023-09-18T12:48:37;28.19;47.76
68701;DHT22;55682;51.114;5.882;2023-09-18T12:51:06;28.27;46.25
68701;DHT22;55682;51.114;5.882;2023-09-18T12:53:32;28.04;46.10
68701;DHT22;55682;51.114;5.882;2023-09-18T12:56:11;28.04;45.42
68701;DHT22;55682;51.114;5.882;2023-09-18T12:58:38;28.06;45.60
68701;DHT22;55682;51.114;5.882;2023-09-18T13:01:09;27.98;45.02
68701;DHT22;55682;51.114;5.882;2023-09-18T13:03:46;28.05;44.92
68701;DHT22;55682;51.114;5.882;2023-09-18T13:06:16;27.80;44.14
68701;DHT22;55682;51.114;5.882;2023-09-18T13:08:46;27.76;44.63
68701;DHT22;55682;51.114;5.882;2023-09-18T13:11:12;27.89;44.54
68701;DHT22;55682;51.114;5.882;2023-09-18T13:13:40;27.93;43.95
68701;DHT22;55682;51.114;5.882;2023-09-18T13:16:08;27.87;43.86
68701;DHT22;55682;51.114;5.882;2023-09-18T13:18:37;27.97;43.75
68701;DHT22;55682;51.114;5.882;2023-09-18T13:21:10;27.73;44.51
68701;DHT22;55682;51.114;5.882;2023-09-18T13:23:37;27.81;44.19
68701;DHT22;55682;51.114;5.882;2023-09-18T13:26:04;27.60;44.64
68701;DHT22;55682;51.114;5.882;2023-09-18T13:28:31;27.71;44.54
68701;DHT22;55682;51.114;5.882;2023-09-18T13:30:58;27.75;44.62
68701;DHT22;55682;51.114;5.882;2023-09-18T13:33:25;27.70;44.65
68701;DHT22;55682;51.114;5.882;2023-09-18T13:35:51;27.71;44.13
68701;DHT22;55682;51.114;5.882;2023-09-18T13:38:19;27.66;44.70
68701;DHT22;55682;51.114;5.882;2023-09-18T13:40:47;27.79;44.46
68701;DHT22;55682;51.114;5.882;2023-09-18T13:43:14;27.86;44.24
68701;DHT22;55682;51.114;5.882;2023-09-18T13:45:47;27.88;43.44
68701;DHT22;55682;51.114;5.882;2023-09-18T13:48:13;27.73;43.57
68701;DHT22;55682;51.114;5.882;2023-09-18T13:50:41;27.69;43.29
68701;DHT22;55682;51.114;5.882;2023-09-18T13:53:06;27.46;43.48
68701;DHT22;55682;51.114;5.882;2023-09-18T13:55:34;27.36;43.16
68701;DHT22;55682;51.114;5.882;2023-09-18T13:58:00;27.46;43.09
68701;DHT22;55682;51.114;5.882;2023-09-18T14:00:28;27.56;43.15
68701;DHT22;55682;51.114;5.882;2023-09-18T14:02:54;27.58;43.25
68701;DHT22;55682;51.114;5.882;2023-09-18T14:05:19;27.58;43.74
68701;DHT22;55682;51.114;5.882;2023-09-18T14:07:45;27.34;43.72
68701;DHT22;55682;51.114;5.882;2023-09-18T14:10:11;27.29;43.66
68701;DHT22;55682;51.114;5.882;2023-09-18T14:12:38;27.04;45.03
68701;DHT22;55682;51.114;5.882;2023-09-18T14:15:08;27.05;44.76
68701;DHT22;55682;51.114;5.882;2023-09-18T14:17:35;27.02;44.76
68701;DHT22;55682;51.114;5.882;2023-09-18T14:20:02;26.80;45.08
68701;DHT22;55682;51.114;5.882;2023-09-18T14:22:32;26.87;44.52
68701;DHT22;55682;51.114;5.882;2023-09-18T14:24:58;27.02;43.40
68701;DHT22;55682;51.114;5.882;2023-09-18T14:27:23;27.09;43.77
68701;DHT22;55682;51.114;5.882;2023-09-18T14:29:49;27.15;44.03
68701;DHT22;55682;51.114;5.882;2023-09-18T14:32:14;27.21;44.61
68701;DHT22;55682;51.114;5.882;2023-09-18T14:34:40;27.47;44.13
68701;DHT22;55682;51.114;5.882;2023-09-18T14:37:07;27.53;44.29
68701;DHT22;55682;51.114;5.882;2023-09-18T14:39:33;27.63;42.82
68701;DHT22;55682;51.114;5.882;2023-09-18T14:41:59;27.52;43.03
68701;DHT22;55682;51.114;5.882;2023-09-18T14:44:28;27.37;43.16
68701;DHT22;55682;51.114;5.882;2023-09-18T14:46:54;27.16;42.97
68701;DHT22;55682;51.114;5.882;2023-09-18T14:49:20;27.12;43.26
68701;DHT22;55682;51.114;5.882;2023-09-18T14:51:46;27.25;43.19
68701;DHT22;55682;51.114;5.882;2023-09-18T14:54:12;27.16;43.70
68701;DHT22;55682;51.114;5.882;2023-09-18T14:56:39;27.51;42.50
68701;DHT22;55682;51.114;5.882;2023-09-18T14:59:06;27.35;42.76
68701;DHT22;55682;51.114;5.882;2023-09-18T15:01:33;27.43;42.42
68701;DHT22;55682;51.114;5.882;2023-09-18T15:03:59;27.30;42.68
68701;DHT22;55682;51.114;5.882;2023-09-18T15:06:25;27.37;42.08
68701;DHT22;55682;51.114;5.882;2023-09-18T15:08:53;27.22;41.91
68701;DHT22;55682;51.114;5.882;2023-09-18T15:11:19;27.30;41.52
68701;DHT22;55682;51.114;5.882;2023-09-18T15:13:45;27.12;42.58
68701;DHT22;55682;51.114;5.882;2023-09-18T15:16:11;27.22;42.09
68701;DHT22;55682;51.114;5.882;2023-09-18T15:18:38;27.23;42.17
68701;DHT22;55682;51.114;5.882;2023-09-18T15:21:05;27.30;42.07
68701;DHT22;55682;51.114;5.882;2023-09-18T15:23:31;27.10;41.81
68701;DHT22;55682;51.114;5.882;2023-09-18T15:25:56;27.06;41.74
68701;DHT22;55682;51.114;5.882;2023-09-18T15:28:23;26.99;42.36
68701;DHT22;55682;51.114;5.882;2023-09-18T15:30:51;26.99;42.46
68701;DHT22;55682;51.114;5.882;2023-09-18T15:33:17;26.83;43.13
68701;DHT22;55682;51.114;5.882;2023-09-18T15:35:44;26.86;43.14
68701;DHT22;55682;51.114;5.882;2023-09-18T15:38:10;26.85;43.41
68701;DHT22;55682;51.114;5.882;2023-09-18T15:40:36;26.90;43.31
68701;DHT22;55682;51.114;5.882;2023-09-18T15:43:02;26.83;43.50
68701;DHT22;55682;51.114;5.882;2023-09-18T15:45:28;26.78;43.70
68701;DHT22;55682;51.114;5.882;2023-09-18T15:47:54;26.58;44.35